createdAt,value
2018-10-05T00:00:40.979Z,71.87
2018-10-05T00:03:10.331Z,72.83
2018-10-05T00:05:39.598Z,70.83
2018-10-05T00:08:08.864Z,72.67
2018-10-05T00:10:38.165Z,71.00
2018-10-05T00:13:07.528Z,70.30
2018-10-05T00:15:36.758Z,70.93
2018-10-05T00:18:06.464Z,70.50
2018-10-05T00:20:36.502Z,72.03
2018-10-05T00:23:05.755Z,70.00
2018-10-05T00:25:35.012Z,67.60
2018-10-05T00:28:04.259Z,66.77
2018-10-05T00:30:33.463Z,65.03
2018-10-05T00:33:02.702Z,61.80
2018-10-05T00:35:32.019Z,61.33
2018-10-05T00:38:01.865Z,63.23
2018-10-05T00:40:31.227Z,59.97
2018-10-05T00:43:00.501Z,57.27
2018-10-05T00:45:29.748Z,58.47
2018-10-05T00:47:59.011Z,56.33
2018-10-05T00:50:28.268Z,54.53
2018-10-05T00:52:57.544Z,58.20
2018-10-05T00:55:26.808Z,54.27
2018-10-05T00:57:56.136Z,55.80
2018-10-05T01:00:25.402Z,56.13
2018-10-05T01:02:55.173Z,53.07
2018-10-05T01:05:24.496Z,55.17
2018-10-05T01:07:53.724Z,53.70
2018-10-05T01:10:22.980Z,49.27
2018-10-05T01:12:52.236Z,48.20
2018-10-05T01:15:22.430Z,53.23
2018-10-05T01:17:51.695Z,51.60
2018-10-05T01:20:21.304Z,50.40
2018-10-05T01:22:50.884Z,49.30
2018-10-05T01:25:20.196Z,51.70
2018-10-05T01:27:49.453Z,51.07
2018-10-05T01:30:18.732Z,50.20
2018-10-05T01:32:47.941Z,46.53
2018-10-05T01:35:17.208Z,53.27
2018-10-05T01:37:46.484Z,49.43
2018-10-05T01:40:15.744Z,47.93
2018-10-05T01:42:45.009Z,49.57
2018-10-05T01:45:14.285Z,50.70
2018-10-05T01:47:43.541Z,47.97
2018-10-05T01:50:12.796Z,49.13
2018-10-05T01:52:42.085Z,49.57
2018-10-05T01:55:11.347Z,46.50
2018-10-05T01:57:40.614Z,49.00
2018-10-05T02:00:10.244Z,48.13
2018-10-05T02:02:39.996Z,47.60
2018-10-05T02:05:09.416Z,48.70
2018-10-05T02:07:38.871Z,50.20
2018-10-05T02:10:08.168Z,47.90
2018-10-05T02:12:37.427Z,48.97
2018-10-05T02:15:06.687Z,48.73
2018-10-05T02:17:35.931Z,52.13
2018-10-05T02:20:05.231Z,50.53
2018-10-05T02:22:34.473Z,48.30
2018-10-05T02:25:03.737Z,49.33
2018-10-05T02:27:33.050Z,48.77
2018-10-05T02:30:02.389Z,48.13
2018-10-05T02:32:31.655Z,47.73
2018-10-05T02:35:00.932Z,46.57
2018-10-05T02:37:30.707Z,47.20
2018-10-05T02:40:00.017Z,46.17
2018-10-05T02:42:29.297Z,50.97
2018-10-05T02:44:58.607Z,52.83
2018-10-05T02:47:28.554Z,52.50
2018-10-05T02:49:58.573Z,50.20
2018-10-05T02:52:27.833Z,52.97
2018-10-05T02:54:57.113Z,53.13
2018-10-05T02:57:26.347Z,55.97
2018-10-05T02:59:55.646Z,53.97
2018-10-05T03:02:35.158Z,60.03
2018-10-05T03:05:04.453Z,58.10
2018-10-05T03:07:33.707Z,53.63
2018-10-05T03:10:02.949Z,57.20
2018-10-05T03:12:32.284Z,61.53
2018-10-05T03:15:01.550Z,61.57
2018-10-05T03:17:30.911Z,62.30
2018-10-05T03:20:00.177Z,61.97
2018-10-05T03:22:29.449Z,65.23
2018-10-05T03:24:58.711Z,66.43
2018-10-05T03:27:27.964Z,69.97
2018-10-05T03:29:57.256Z,67.03
2018-10-05T03:32:26.548Z,65.80
2018-10-05T03:34:56.420Z,67.33
2018-10-05T03:37:25.681Z,66.67
2018-10-05T03:39:54.898Z,65.87
2018-10-05T03:42:24.158Z,64.43
2018-10-05T03:44:53.408Z,66.10
2018-10-05T03:47:22.675Z,65.70
2018-10-05T03:49:51.987Z,63.87
2018-10-05T03:52:21.257Z,64.10
2018-10-05T03:54:50.597Z,65.10
2018-10-05T03:57:20.813Z,65.37
2018-10-05T03:59:50.504Z,61.80
2018-10-05T04:02:19.756Z,64.73
2018-10-05T04:04:49.101Z,62.80
2018-10-05T04:07:19.295Z,64.47
2018-10-05T04:09:48.568Z,67.43
2018-10-05T04:12:17.820Z,69.80
2018-10-05T04:14:47.191Z,68.60
2018-10-05T04:17:16.548Z,67.27
2018-10-05T04:19:45.877Z,67.97
2018-10-05T04:22:19.578Z,64.83
2018-10-05T04:24:48.856Z,65.27
2018-10-05T04:27:18.140Z,67.00
2018-10-05T04:29:47.368Z,69.27
2018-10-05T04:32:16.669Z,73.67
2018-10-05T04:34:47.053Z,71.53
2018-10-05T04:37:16.403Z,71.33
2018-10-05T04:39:45.677Z,74.50
2018-10-05T04:42:14.973Z,73.07
2018-10-05T04:44:44.269Z,69.57
2018-10-05T04:47:13.737Z,71.07
2018-10-05T04:49:43.027Z,67.07
2018-10-05T04:52:12.347Z,69.23
2018-10-05T04:54:41.597Z,68.27
2018-10-05T04:57:10.944Z,71.90
2018-10-05T04:59:40.669Z,76.73
2018-10-05T05:02:09.933Z,67.97
2018-10-05T05:04:39.170Z,75.07
2018-10-05T05:07:08.651Z,73.67
2018-10-05T05:09:37.924Z,73.20
2018-10-05T05:12:07.849Z,70.83
2018-10-05T05:14:38.651Z,76.27
2018-10-05T05:17:07.863Z,75.97
2018-10-05T05:19:37.184Z,75.27
2018-10-05T05:22:06.489Z,70.27
2018-10-05T05:24:35.802Z,77.93
2018-10-05T05:27:05.049Z,76.03
2018-10-05T05:29:34.304Z,77.70
2018-10-05T05:32:03.535Z,78.27
2018-10-05T05:34:32.772Z,76.77
2018-10-05T05:37:02.020Z,75.47
2018-10-05T05:39:31.360Z,78.07
2018-10-05T05:42:00.610Z,75.07
2018-10-05T05:44:29.860Z,72.37
2018-10-05T05:47:00.057Z,70.20
2018-10-05T05:49:29.282Z,69.00
2018-10-05T05:51:58.546Z,70.40
2018-10-05T05:54:27.777Z,76.30
2018-10-05T05:56:57.017Z,69.20
2018-10-05T05:59:26.479Z,72.27
2018-10-05T06:01:55.729Z,68.07
2018-10-05T06:04:24.968Z,69.13
2018-10-05T06:06:54.197Z,71.27
2018-10-05T06:09:23.417Z,67.37
2018-10-05T06:11:52.697Z,68.87
2018-10-05T06:14:21.963Z,71.87
2018-10-05T06:16:51.295Z,65.47
2018-10-05T06:19:21.361Z,66.13
2018-10-05T06:21:50.868Z,63.77
2018-10-05T06:24:20.044Z,61.83
2018-10-05T06:26:49.332Z,65.83
2018-10-05T06:29:18.583Z,58.23
2018-10-05T06:31:48.408Z,66.77
2018-10-05T06:34:17.739Z,69.63
2018-10-05T06:36:47.029Z,59.57
2018-10-05T06:39:16.259Z,64.90
2018-10-05T06:41:45.553Z,59.07
2018-10-05T06:44:14.799Z,59.83
2018-10-05T06:46:44.088Z,60.90
2018-10-05T06:49:13.335Z,56.27
2018-10-05T06:51:42.609Z,53.63
2018-10-05T06:54:12.680Z,54.40
2018-10-05T06:56:41.932Z,57.47
2018-10-05T06:59:11.393Z,53.50
2018-10-05T07:01:40.878Z,54.63
2018-10-05T07:04:11.204Z,51.37
2018-10-05T07:06:40.428Z,60.30
2018-10-05T07:09:09.724Z,53.93
2018-10-05T07:11:39.026Z,54.53
2018-10-05T07:14:08.380Z,55.20
2018-10-05T07:16:37.678Z,54.77
2018-10-05T07:19:06.937Z,53.43
2018-10-05T07:21:36.164Z,51.00
2018-10-05T07:24:05.444Z,53.07
2018-10-05T07:26:34.714Z,53.90
2018-10-05T07:29:03.950Z,46.80
2018-10-05T07:31:33.329Z,45.37
2018-10-05T07:34:02.764Z,43.87
2018-10-05T07:36:32.082Z,44.57
2018-10-05T07:39:01.327Z,43.30
2018-10-05T07:41:30.844Z,43.07
2018-10-05T07:44:00.088Z,50.60
2018-10-05T07:46:29.313Z,42.47
2018-10-05T07:48:58.588Z,43.97
2018-10-05T07:51:27.829Z,42.63
2018-10-05T07:53:57.115Z,40.90
2018-10-05T07:56:26.394Z,40.03
2018-10-05T07:58:55.697Z,39.50
2018-10-05T08:01:24.952Z,39.60
2018-10-05T08:03:55.240Z,41.90
2018-10-05T08:06:24.595Z,39.40
2018-10-05T08:08:53.808Z,36.73
2018-10-05T08:11:23.084Z,37.90
2018-10-05T08:13:52.366Z,40.80
2018-10-05T08:16:21.624Z,37.57
2018-10-05T08:18:50.988Z,39.63
2018-10-05T08:21:20.304Z,40.27
2018-10-05T08:23:49.758Z,37.90
2018-10-05T08:26:19.884Z,36.87
2018-10-05T08:28:49.173Z,35.47
2018-10-05T08:31:18.448Z,34.00
2018-10-05T08:33:47.821Z,36.87
2018-10-05T08:36:17.085Z,38.80
2018-10-05T08:38:46.540Z,36.87
2018-10-05T08:41:15.778Z,32.10
2018-10-05T08:43:46.048Z,31.30
2018-10-05T08:46:15.301Z,34.20
2018-10-05T08:48:44.577Z,32.70
2018-10-05T08:51:13.904Z,34.67
2018-10-05T08:53:43.168Z,36.83
2018-10-05T08:56:12.380Z,32.57
2018-10-05T08:58:41.656Z,34.40
2018-10-05T09:01:10.897Z,30.40
2018-10-05T09:03:40.136Z,35.37
2018-10-05T09:06:09.400Z,29.90
2018-10-05T09:08:38.640Z,30.53
2018-10-05T09:11:09.000Z,33.37
2018-10-05T09:13:38.204Z,29.37
2018-10-05T09:16:07.599Z,29.93
2018-10-05T09:18:37.771Z,27.90
2018-10-05T09:21:07.133Z,29.90
2018-10-05T09:23:36.757Z,30.57
2018-10-05T09:26:06.013Z,29.97
2018-10-05T09:28:35.284Z,29.07
2018-10-05T09:31:04.556Z,26.67
2018-10-05T09:33:33.825Z,30.30
2018-10-05T09:36:03.289Z,27.57
2018-10-05T09:38:32.659Z,26.60
2018-10-05T09:41:01.915Z,27.63
2018-10-05T09:43:31.171Z,26.27
2018-10-05T09:46:00.406Z,25.67
2018-10-05T09:48:29.675Z,27.17
2018-10-05T09:50:59.176Z,27.23
2018-10-05T09:53:28.428Z,24.60
2018-10-05T09:55:57.674Z,23.73
2018-10-05T09:58:26.908Z,25.97
2018-10-05T10:01:01.486Z,24.23
2018-10-05T10:03:32.488Z,22.83
2018-10-05T10:06:02.182Z,24.47
2018-10-05T10:08:31.539Z,22.70
2018-10-05T10:11:00.758Z,22.53
2018-10-05T10:13:30.009Z,22.33
2018-10-05T10:15:59.243Z,21.07
2018-10-05T10:18:28.501Z,21.70
2018-10-05T10:20:57.817Z,19.27
2018-10-05T10:23:27.412Z,18.17
2018-10-05T10:25:56.697Z,17.00
2018-10-05T10:28:26.074Z,15.70
2018-10-05T10:30:55.250Z,15.90
2018-10-05T10:33:24.472Z,15.47
2018-10-05T10:35:53.871Z,14.53
2018-10-05T10:38:23.243Z,14.17
2018-10-05T10:40:52.525Z,13.50
2018-10-05T10:43:21.855Z,15.63
2018-10-05T10:45:52.040Z,15.17
2018-10-05T10:48:21.461Z,14.10
2018-10-05T10:50:50.591Z,12.77
2018-10-05T10:53:19.904Z,12.67
2018-10-05T10:55:49.705Z,13.87
2018-10-05T10:58:18.952Z,11.97
2018-10-05T11:00:48.333Z,10.23
2018-10-05T11:03:17.571Z,10.47
2018-10-05T11:05:46.781Z,14.17
2018-10-05T11:08:16.016Z,11.27
2018-10-05T11:10:45.356Z,11.07
2018-10-05T11:13:14.847Z,10.23
2018-10-05T11:15:44.127Z,10.30
2018-10-05T11:18:13.384Z,9.87
2018-10-05T11:20:42.606Z,9.30
2018-10-05T11:23:12.072Z,10.87
2018-10-05T11:25:41.324Z,10.27
2018-10-05T11:28:10.627Z,8.73
2018-10-05T11:30:39.895Z,10.23
2018-10-05T11:33:09.161Z,10.97
2018-10-05T11:35:38.430Z,9.50
2018-10-05T11:38:07.760Z,10.27
2018-10-05T11:40:37.044Z,8.57
2018-10-05T11:43:06.292Z,9.77
2018-10-05T11:45:35.569Z,9.30
2018-10-05T11:48:04.826Z,9.13
2018-10-05T11:50:34.096Z,10.67
2018-10-05T11:53:03.459Z,10.97
2018-10-05T11:55:32.722Z,10.53
2018-10-05T11:58:02.032Z,9.67
2018-10-05T12:00:32.021Z,7.90
2018-10-05T12:03:01.313Z,12.43
2018-10-05T12:05:30.538Z,10.63
2018-10-05T12:07:59.814Z,10.67
2018-10-05T12:10:29.152Z,11.33
2018-10-05T12:12:58.484Z,10.70
2018-10-05T12:15:27.759Z,9.13
2018-10-05T12:17:57.040Z,9.10
2018-10-05T12:20:27.040Z,7.10
2018-10-05T12:22:56.291Z,7.87
2018-10-05T12:25:25.633Z,10.30
2018-10-05T12:27:54.842Z,7.97
2018-10-05T12:30:24.141Z,10.87
2018-10-05T12:32:53.398Z,10.20
2018-10-05T12:35:22.772Z,10.43
2018-10-05T12:37:52.025Z,11.03
2018-10-05T12:40:21.310Z,8.40
2018-10-05T12:42:50.535Z,9.97
2018-10-05T12:45:19.836Z,8.83
2018-10-05T12:47:49.142Z,9.50
2018-10-05T12:50:18.413Z,9.77
2018-10-05T12:52:48.677Z,11.57
2018-10-05T12:55:17.915Z,9.37
2018-10-05T12:57:47.128Z,7.83
2018-10-05T13:00:16.393Z,10.13
2018-10-05T13:02:45.761Z,8.47
2018-10-05T13:05:15.046Z,7.73
2018-10-05T13:07:44.256Z,8.67
2018-10-05T13:10:13.556Z,9.83
2018-10-05T13:12:42.807Z,8.07
2018-10-05T13:15:12.062Z,6.93
2018-10-05T13:17:41.884Z,9.03
2018-10-05T13:20:11.136Z,8.30
2018-10-05T13:22:40.428Z,10.13
2018-10-05T13:25:09.781Z,12.10
2018-10-05T13:27:38.991Z,9.67
2018-10-05T13:30:08.965Z,11.27
2018-10-05T13:32:38.196Z,9.53
2018-10-05T13:35:07.426Z,10.73
2018-10-05T13:37:36.730Z,10.47
2018-10-05T13:40:06.096Z,11.37
2018-10-05T13:42:35.975Z,11.10
2018-10-05T13:45:05.324Z,11.53
2018-10-05T13:47:34.597Z,13.17
2018-10-05T13:50:04.073Z,10.20
2018-10-05T13:52:33.293Z,13.30
2018-10-05T13:55:02.531Z,11.27
2018-10-05T13:57:31.833Z,11.80
2018-10-05T14:00:01.093Z,10.87
2018-10-05T14:02:31.289Z,9.47
2018-10-05T14:05:00.553Z,11.40
2018-10-05T14:07:30.814Z,9.00
2018-10-05T14:10:00.087Z,9.77
2018-10-05T14:12:29.361Z,10.63
2018-10-05T14:14:58.644Z,11.97
2018-10-05T14:17:28.369Z,12.00
2018-10-05T14:19:57.658Z,12.93
2018-10-05T14:22:26.920Z,9.87
2018-10-05T14:24:56.156Z,8.53
2018-10-05T14:27:25.513Z,10.90
2018-10-05T14:29:54.767Z,8.83
2018-10-05T14:32:24.064Z,12.00
2018-10-05T14:34:53.497Z,9.60
2018-10-05T14:37:22.804Z,13.23
2018-10-05T14:39:52.088Z,11.80
2018-10-05T14:42:21.449Z,12.07
2018-10-05T14:44:50.764Z,13.87
2018-10-05T14:47:20.071Z,9.73
2018-10-05T14:49:49.422Z,12.50
2018-10-05T14:52:23.628Z,10.67
2018-10-05T14:54:53.798Z,12.30
2018-10-05T14:57:23.208Z,12.77
2018-10-05T14:59:53.407Z,10.50
2018-10-05T15:02:22.668Z,13.07
2018-10-05T15:04:51.902Z,12.40
2018-10-05T15:07:21.220Z,14.97
2018-10-05T15:09:50.465Z,12.40
2018-10-05T15:12:19.715Z,10.60
2018-10-05T15:14:48.981Z,12.93
2018-10-05T15:17:18.321Z,12.20
2018-10-05T15:19:47.596Z,10.77
2018-10-05T15:22:16.967Z,13.37
2018-10-05T15:24:46.285Z,13.63
2018-10-05T15:27:15.556Z,12.90
2018-10-05T15:29:45.475Z,13.63
2018-10-05T15:32:14.731Z,12.43
2018-10-05T15:34:44.039Z,10.80
2018-10-05T15:37:13.300Z,12.13
2018-10-05T15:39:42.528Z,13.13
2018-10-05T15:42:11.771Z,15.03
2018-10-05T15:44:41.056Z,11.17
2018-10-05T15:47:12.446Z,14.87
2018-10-05T15:49:42.315Z,10.73
2018-10-05T15:52:11.619Z,12.87
2018-10-05T15:54:40.881Z,14.33
2018-10-05T15:57:10.201Z,14.97
2018-10-05T15:59:39.585Z,15.23
2018-10-05T16:02:09.654Z,13.23
2018-10-05T16:04:38.905Z,11.73
2018-10-05T16:07:14.864Z,10.67
2018-10-05T16:09:44.338Z,14.03
2018-10-05T16:12:13.797Z,15.87
2018-10-05T16:14:43.013Z,13.63
2018-10-05T16:17:12.285Z,13.90
2018-10-05T16:19:41.541Z,15.87
2018-10-05T16:22:10.883Z,12.07
2018-10-05T16:24:41.806Z,14.17
2018-10-05T16:27:12.341Z,13.13
2018-10-05T16:29:41.681Z,22.30
2018-10-05T16:32:11.477Z,50.77
2018-10-05T16:34:40.844Z,37.87
2018-10-05T16:37:10.886Z,33.60
2018-10-05T16:39:40.151Z,28.20
2018-10-05T16:42:09.544Z,20.43
2018-10-05T16:44:38.799Z,15.57
2018-10-05T16:47:08.167Z,16.83
2018-10-05T16:49:37.437Z,15.63
2018-10-05T16:52:06.767Z,17.73
2018-10-05T16:54:36.118Z,13.67
2018-10-05T16:57:05.964Z,18.03
2018-10-05T16:59:35.148Z,15.43
2018-10-05T17:02:04.476Z,20.03
2018-10-05T17:04:33.744Z,17.50
2018-10-05T17:07:03.823Z,15.97
2018-10-05T17:09:33.262Z,18.20
2018-10-05T17:12:02.593Z,15.13
2018-10-05T17:14:32.000Z,20.07
2018-10-05T17:17:01.337Z,21.93
2018-10-05T17:19:30.576Z,17.60
2018-10-05T17:21:59.845Z,17.83
2018-10-05T17:24:29.186Z,16.53
2018-10-05T17:26:58.484Z,21.80
2018-10-05T17:29:27.862Z,17.40
2018-10-05T17:31:57.076Z,17.63
2018-10-05T17:34:26.325Z,15.77
2018-10-05T17:36:55.573Z,15.87
2018-10-05T17:39:24.837Z,18.47
2018-10-05T17:41:54.230Z,17.80
2018-10-05T17:44:23.554Z,19.57
2018-10-05T17:46:52.825Z,20.63
2018-10-05T17:49:22.404Z,19.87
2018-10-05T17:51:52.380Z,21.30
2018-10-05T17:54:21.701Z,21.63
2018-10-05T17:56:51.002Z,20.47
2018-10-05T17:59:20.284Z,21.37
2018-10-05T18:01:49.632Z,21.83
2018-10-05T18:04:18.901Z,22.60
2018-10-05T18:06:48.155Z,21.37
2018-10-05T18:09:17.416Z,20.80
2018-10-05T18:11:46.674Z,19.57
2018-10-05T18:14:15.969Z,21.50
2018-10-05T18:16:45.230Z,20.13
2018-10-05T18:19:14.572Z,21.23
2018-10-05T18:21:43.872Z,20.97
2018-10-05T18:24:13.120Z,25.10
2018-10-05T18:26:42.356Z,24.80
2018-10-05T18:29:12.320Z,19.97
2018-10-05T18:31:41.571Z,25.93
2018-10-05T18:34:10.943Z,20.77
2018-10-05T18:36:40.420Z,24.63
2018-10-05T18:39:10.553Z,26.67
2018-10-05T18:41:40.000Z,27.37
2018-10-05T18:44:09.715Z,24.97
2018-10-05T18:46:38.999Z,25.80
2018-10-05T18:49:08.306Z,22.20
2018-10-05T18:51:38.497Z,23.73
2018-10-05T18:54:08.261Z,25.90
2018-10-05T18:56:48.724Z,23.80
2018-10-05T18:59:18.020Z,27.77
2018-10-05T19:01:47.293Z,26.97
2018-10-05T19:04:16.596Z,31.37
2018-10-05T19:06:45.948Z,24.60
2018-10-05T19:09:15.199Z,18.33
2018-10-05T19:11:44.440Z,22.13
2018-10-05T19:14:13.733Z,17.77
2018-10-05T19:16:43.694Z,15.37
2018-10-05T19:19:12.976Z,20.03
2018-10-05T19:21:42.291Z,33.57
2018-10-05T19:24:11.563Z,29.83
2018-10-05T19:26:40.881Z,25.03
2018-10-05T19:29:10.446Z,29.87
2018-10-05T19:31:39.828Z,29.23
2018-10-05T19:34:09.116Z,35.43
2018-10-05T19:36:38.456Z,34.97
2018-10-05T19:39:09.424Z,31.37
2018-10-05T19:41:39.340Z,35.13
2018-10-05T19:44:09.181Z,35.63
2018-10-05T19:46:38.580Z,36.73
2018-10-05T19:49:07.909Z,43.07
2018-10-05T19:51:37.234Z,41.90
2018-10-05T19:54:06.576Z,40.47
2018-10-05T19:56:35.934Z,36.70
2018-10-05T19:59:05.235Z,36.03
2018-10-05T20:01:34.512Z,38.13
2018-10-05T20:04:03.804Z,35.57
2018-10-05T20:06:33.112Z,32.13
2018-10-05T20:09:02.461Z,38.50
2018-10-05T20:11:31.703Z,38.10
2018-10-05T20:14:00.935Z,32.57
2018-10-05T20:16:30.204Z,38.57
2018-10-05T20:18:59.448Z,37.73
2018-10-05T20:21:28.708Z,36.33
2018-10-05T20:23:57.964Z,32.27
2018-10-05T20:26:27.309Z,37.73
2018-10-05T20:28:56.545Z,41.73
2018-10-05T20:31:25.937Z,36.30
2018-10-05T20:33:55.205Z,37.43
2018-10-05T20:36:24.556Z,33.17
2018-10-05T20:38:53.756Z,34.47
2018-10-05T20:41:23.407Z,33.97
2018-10-05T20:43:52.691Z,40.27
2018-10-05T20:46:22.741Z,38.33
2018-10-05T20:48:52.024Z,39.63
2018-10-05T20:51:22.577Z,41.20
2018-10-05T20:53:51.960Z,37.57
2018-10-05T20:56:21.245Z,39.23
2018-10-05T20:58:50.532Z,33.07
2018-10-05T21:01:19.768Z,18.20
2018-10-05T21:03:49.015Z,17.23
2018-10-05T21:06:19.395Z,18.90
2018-10-05T21:08:48.642Z,24.40
2018-10-05T21:11:17.885Z,26.43
2018-10-05T21:13:47.115Z,24.57
2018-10-05T21:16:16.359Z,18.60
2018-10-05T21:18:45.606Z,27.83
2018-10-05T21:21:14.855Z,26.43
2018-10-05T21:23:44.165Z,27.80
2018-10-05T21:26:13.420Z,25.50
2018-10-05T21:28:42.694Z,39.37
2018-10-05T21:31:11.953Z,43.60
2018-10-05T21:33:41.216Z,44.50
2018-10-05T21:36:10.631Z,40.63
2018-10-05T21:38:40.753Z,40.60
2018-10-05T21:41:09.997Z,41.27
2018-10-05T21:43:39.224Z,38.87
2018-10-05T21:46:09.521Z,41.63
2018-10-05T21:48:38.768Z,43.20
2018-10-05T21:51:08.001Z,38.77
2018-10-05T21:53:37.315Z,40.77
2018-10-05T21:56:06.813Z,37.97
2018-10-05T21:58:36.044Z,33.43
2018-10-05T22:01:05.336Z,39.47
2018-10-05T22:03:35.485Z,45.53
2018-10-05T22:06:04.847Z,44.63
2018-10-05T22:08:34.157Z,41.27
2018-10-05T22:11:03.436Z,44.07
2018-10-05T22:13:32.714Z,50.93
2018-10-05T22:16:02.196Z,51.83
2018-10-05T22:18:31.430Z,47.60
2018-10-05T22:21:00.660Z,47.17
2018-10-05T22:23:29.967Z,46.90
2018-10-05T22:25:59.260Z,51.07
2018-10-05T22:28:29.264Z,51.00
2018-10-05T22:30:58.509Z,51.47
2018-10-05T22:33:28.093Z,60.43
2018-10-05T22:35:57.373Z,52.83
2018-10-05T22:38:26.617Z,52.57
2018-10-05T22:40:56.561Z,39.93
2018-10-05T22:43:25.913Z,44.93
2018-10-05T22:45:55.168Z,54.33
2018-10-05T22:48:24.419Z,46.40
2018-10-05T22:50:53.680Z,44.67
2018-10-05T22:53:23.182Z,43.90
2018-10-05T22:55:52.536Z,34.17
2018-10-05T22:58:21.941Z,22.47
2018-10-05T23:00:51.896Z,27.80
2018-10-05T23:03:21.910Z,48.93
2018-10-05T23:05:51.163Z,48.80
2018-10-05T23:08:20.442Z,42.37
2018-10-05T23:10:49.669Z,48.37
2018-10-05T23:13:18.930Z,57.43
2018-10-05T23:15:48.220Z,55.83
2018-10-05T23:18:17.464Z,57.63
2018-10-05T23:20:46.749Z,52.80
2018-10-05T23:23:16.024Z,53.13
2018-10-05T23:25:45.271Z,48.93
2018-10-05T23:28:14.540Z,48.93
2018-10-05T23:30:43.880Z,53.83
2018-10-05T23:33:13.119Z,48.63
2018-10-05T23:35:43.073Z,48.33
2018-10-05T23:38:12.344Z,43.93
2018-10-05T23:40:41.608Z,46.50
2018-10-05T23:43:10.840Z,54.20
2018-10-05T23:45:40.104Z,53.57
2018-10-05T23:48:09.441Z,47.57
2018-10-05T23:50:38.754Z,45.37
2018-10-05T23:53:07.988Z,45.77
2018-10-05T23:55:37.221Z,31.40
2018-10-05T23:58:06.729Z,27.97
